Time;durP1;ratioP1;P1;durP2;ratioP2;P2;SDS_P1;SDS_P2;PMS_P1;PMS_P2;Temp;Humidity;BMP_temperature;BMP_pressure;BME280_temperature;BME280_humidity;BME280_pressure;Samples;Min_cycle;Max_cycle;Signal;HPM_P1;HPM_P2
2022/08/09 00:00:05;;;;;;;4.70;2.70;;;18.50;65.30;;;17.70;72.52;96612.47;4943467;28;20035;-66
2022/08/09 00:02:32;;;;;;;3.97;2.83;;;18.40;65.40;;;17.64;72.70;96607.97;4943698;28;20046;-65
2022/08/09 00:04:58;;;;;;;4.22;2.90;;;18.40;65.60;;;17.57;72.77;96603.78;4943648;28;20123;-65
2022/08/09 00:07:23;;;;;;;2.97;2.67;;;18.30;65.60;;;17.52;73.51;96607.09;4944597;28;20114;-66
2022/08/09 00:09:49;;;;;;;3.90;2.70;;;18.30;65.70;;;17.50;73.69;96611.03;4945131;28;20047;-66
2022/08/09 00:12:15;;;;;;;3.03;2.70;;;18.20;65.90;;;17.44;73.42;96610.88;4944917;28;20129;-65
2022/08/09 00:14:41;;;;;;;4.32;3.10;;;18.10;66.10;;;17.38;74.29;96617.03;4927782;28;20447;-65
2022/08/09 00:17:06;;;;;;;5.78;3.10;;;18.10;66.20;;;17.33;74.12;96608.09;4944682;28;20526;-65
2022/08/09 00:19:32;;;;;;;4.63;3.05;;;18.10;66.30;;;17.28;74.65;96607.94;4960906;28;20488;-65
2022/08/09 00:21:58;;;;;;;3.72;2.95;;;18.00;66.50;;;17.22;74.79;96606.19;4960205;28;20174;-65
2022/08/09 00:24:25;;;;;;;4.47;3.28;;;18.00;66.70;;;17.18;74.74;96611.09;4943432;28;20114;-65
2022/08/09 00:26:50;;;;;;;3.80;3.45;;;18.00;66.80;;;17.11;75.29;96616.47;4913346;28;20039;-65
2022/08/09 00:29:16;;;;;;;6.97;3.50;;;17.90;67.30;;;17.06;75.36;96618.97;4959568;28;20821;-65
2022/08/09 00:31:42;;;;;;;4.80;3.38;;;17.80;67.50;;;17.00;76.42;96614.53;4944303;28;20724;-66
2022/08/09 00:34:07;;;;;;;5.28;3.10;;;17.80;67.70;;;16.97;76.23;96620.25;4927803;28;20495;-65
2022/08/09 00:36:33;;;;;;;4.25;2.97;;;17.80;67.90;;;16.94;77.23;96620.69;4944412;28;20043;-65
2022/08/09 00:38:59;;;;;;;5.10;3.20;;;17.70;68.10;;;16.92;77.10;96617.44;4944002;28;20578;-65
2022/08/09 00:41:25;;;;;;;3.67;3.10;;;17.70;68.20;;;16.88;76.88;96616.25;4942100;28;20539;-64
2022/08/09 00:43:50;;;;;;;4.15;3.25;;;17.70;68.20;;;16.84;77.00;96610.56;4944011;28;20035;-64
2022/08/09 00:46:17;;;;;;;6.57;3.03;;;17.70;68.20;;;16.82;77.99;96617.13;4911171;28;20530;-65
2022/08/09 00:48:43;;;;;;;4.85;3.00;;;17.60;68.20;;;16.81;77.49;96616.28;4944702;28;20059;-66
2022/08/09 00:51:09;;;;;;;4.45;3.03;;;17.60;68.20;;;16.80;77.24;96613.84;4944943;28;20051;-66
2022/08/09 00:53:35;;;;;;;4.45;3.22;;;17.60;68.30;;;16.78;77.56;96621.22;4943927;28;20171;-65
2022/08/09 00:56:02;;;;;;;3.35;3.00;;;17.60;68.30;;;16.76;77.85;96623.28;4930306;28;20059;-65
2022/08/09 00:58:29;;;;;;;4.10;3.00;;;17.60;68.30;;;16.74;78.14;96625.31;4958866;28;20034;-64
2022/08/09 01:00:55;;;;;;;4.10;3.20;;;17.60;68.40;;;16.72;77.99;96627.38;4960024;28;20059;-65
2022/08/09 01:03:23;;;;;;;3.92;3.10;;;17.60;68.40;;;16.70;78.46;96624.13;4943751;28;20047;-64
2022/08/09 01:05:56;;;;;;;4.05;3.05;;;17.50;68.50;;;16.68;78.47;96629.66;4962801;28;20035;-64
2022/08/09 01:08:40;;;;;;;5.05;3.03;;;17.50;68.40;;;16.66;78.92;96623.75;4958237;28;20039;-65
2022/08/09 01:11:36;;;;;;;4.15;3.00;;;17.50;68.40;;;16.63;79.52;96626.00;4962158;28;20035;-64
2022/08/09 01:14:14;;;;;;;3.67;3.25;;;17.50;68.50;;;16.60;79.48;96634.38;4964656;28;20038;-66
2022/08/09 01:16:41;;;;;;;3.72;3.38;;;17.40;68.60;;;16.54;78.43;96636.88;4932519;28;20071;-66
2022/08/09 01:19:53;;;;;;;4.88;3.03;;;17.40;68.40;;;16.52;79.56;96636.28;4948458;28;20125;-65
2022/08/09 01:22:39;;;;;;;5.50;3.08;;;17.30;68.70;;;16.50;79.53;96633.00;4933508;28;20039;-66
2022/08/09 01:25:32;;;;;;;5.20;3.20;;;17.30;68.70;;;16.48;79.85;96627.09;4962684;28;20566;-66
2022/08/09 01:27:57;;;;;;;4.80;3.00;;;17.30;68.60;;;16.45;78.29;96622.19;4953849;28;20519;-66
2022/08/09 01:30:25;;;;;;;5.07;3.60;;;17.30;68.60;;;16.47;78.22;96628.09;4946026;28;20070;-66
2022/08/09 01:32:51;;;;;;;3.50;2.70;;;17.30;68.50;;;16.47;78.26;96625.47;4945748;28;20050;-65
2022/08/09 01:35:29;;;;;;;4.20;3.10;;;17.40;68.20;;;16.49;79.39;96625.25;4946681;28;20034;-65
2022/08/09 01:37:57;;;;;;;5.22;3.00;;;17.40;68.20;;;16.48;77.81;96624.44;4943428;28;20040;-65
2022/08/09 01:40:23;;;;;;;4.55;2.92;;;17.40;68.00;;;16.48;78.06;96627.09;4945105;28;20407;-65
2022/08/09 01:42:49;;;;;;;3.38;2.60;;;17.40;68.00;;;16.48;78.03;96631.59;4931153;28;20047;-65
2022/08/09 01:45:15;;;;;;;4.18;2.97;;;17.30;67.90;;;16.44;77.80;96625.88;4927596;28;20107;-66
2022/08/09 01:47:41;;;;;;;4.03;3.00;;;17.30;67.80;;;16.45;78.01;96629.34;4930081;28;20054;-65
2022/08/09 01:50:07;;;;;;;4.53;3.00;;;17.30;67.90;;;16.42;77.86;96633.25;4947446;28;20439;-65
2022/08/09 01:52:34;;;;;;;4.00;2.80;;;17.20;67.80;;;16.35;78.19;96632.47;4946211;28;20126;-66
2022/08/09 01:55:00;;;;;;;4.07;2.90;;;17.10;68.00;;;16.31;78.75;96633.13;4930274;28;20046;-65
2022/08/09 01:57:48;;;;;;;6.05;3.00;;;17.20;68.10;;;16.26;79.78;96636.38;4948613;28;20071;-65
2022/08/09 02:00:14;;;;;;;3.67;2.72;;;17.10;68.40;;;16.22;78.38;96633.34;4931742;28;20456;-66
2022/08/09 02:02:43;;;;;;;4.20;3.03;;;17.00;68.70;;;16.20;78.93;96634.59;4961527;28;20093;-66
2022/08/09 02:05:10;;;;;;;6.05;2.92;;;17.10;68.70;;;16.14;78.33;96636.25;4930926;29;20043;-65
2022/08/09 02:07:42;;;;;;;4.97;2.80;;;16.90;68.60;;;16.13;78.67;96639.13;4931711;28;20102;-66
2022/08/09 02:10:31;;;;;;;5.22;2.70;;;17.00;68.70;;;16.09;79.50;96635.25;4964208;28;20031;-65
2022/08/09 02:13:03;;;;;;;6.07;3.10;;;16.90;68.80;;;16.03;79.77;96633.41;4944213;28;20060;-65
2022/08/09 02:15:28;;;;;;;5.88;3.05;;;16.90;68.90;;;15.99;79.18;96634.88;4943505;28;20047;-66
2022/08/09 02:17:54;;;;;;;3.63;3.08;;;16.80;69.00;;;15.96;79.29;96637.94;4948503;28;20089;-65
2022/08/09 02:20:20;;;;;;;5.38;2.90;;;16.80;69.20;;;15.92;79.24;96641.03;4948323;28;20046;-65
2022/08/09 02:23:04;;;;;;;3.95;3.17;;;16.80;69.20;;;15.91;80.20;96639.41;4930274;28;20476;-66
2022/08/09 02:25:33;;;;;;;4.03;2.90;;;16.80;69.40;;;15.87;80.53;96648.00;4960868;28;20854;-66
2022/08/09 02:28:05;;;;;;;3.38;3.00;;;16.70;69.40;;;15.84;80.57;96651.88;4946115;28;20035;-65
2022/08/09 02:30:47;;;;;;;5.60;4.10;;;16.70;69.40;;;15.81;80.71;96657.56;4944961;28;20051;-65
2022/08/09 02:33:25;;;;;;;10.20;7.53;;;16.60;69.60;;;15.79;81.17;96659.63;4915628;28;20043;-66
2022/08/09 02:35:54;;;;;;;5.65;4.18;;;16.60;69.70;;;15.77;79.92;96656.34;4914541;28;20858;-66
2022/08/09 02:38:25;;;;;;;3.95;3.28;;;16.60;69.80;;;15.76;80.17;96652.06;4925770;28;20046;-67
2022/08/09 02:40:52;;;;;;;9.48;6.95;;;16.60;69.80;;;15.76;80.71;96649.44;4930499;28;20118;-65
2022/08/09 02:43:18;;;;;;;9.55;8.27;;;16.60;69.90;;;15.73;80.50;96649.84;4945942;28;20035;-66
2022/08/09 02:45:44;;;;;;;5.93;5.15;;;16.60;69.90;;;15.73;80.75;96641.88;4913891;29;20391;-65
2022/08/09 02:48:13;;;;;;;21.40;18.90;;;16.60;70.00;;;15.73;81.17;96641.06;4943423;28;20527;-65
2022/08/09 02:50:46;;;;;;;14.65;11.75;;;16.60;70.00;;;15.73;82.03;96639.22;4913696;28;20088;-63
2022/08/09 02:53:36;;;;;;;9.18;7.97;;;16.60;69.70;;;15.75;80.88;96634.53;4928850;28;20031;-70
2022/08/09 02:56:02;;;;;;;5.50;4.05;;;16.70;69.60;;;15.79;81.40;96632.28;4945988;28;20062;-65
2022/08/09 02:58:31;;;;;;;14.60;10.68;;;16.80;69.20;;;15.81;80.91;96631.03;4930373;28;20102;-65
2022/08/09 03:00:57;;;;;;;9.88;7.30;;;16.80;69.10;;;15.82;81.21;96637.16;4944730;28;20082;-64
2022/08/09 03:03:23;;;;;;;8.30;5.30;;;16.80;69.10;;;15.85;80.71;96637.59;4932050;28;20039;-65
2022/08/09 03:05:49;;;;;;;6.57;4.97;;;16.80;69.20;;;15.87;81.06;96630.22;4951576;28;20071;-65
2022/08/09 03:08:15;;;;;;;7.80;6.05;;;16.90;69.20;;;15.89;81.07;96628.19;4929535;28;20043;-65
2022/08/09 03:10:41;;;;;;;7.88;3.97;;;16.90;69.30;;;15.90;80.88;96629.00;4949324;28;20039;-64
2022/08/09 03:13:06;;;;;;;4.15;3.72;;;16.90;69.30;;;15.91;81.40;96631.44;4949726;28;20039;-65
2022/08/09 03:15:32;;;;;;;3.50;3.20;;;16.90;69.20;;;15.90;80.90;96632.47;4948786;28;20039;-65
2022/08/09 03:17:58;;;;;;;6.65;4.40;;;16.90;69.10;;;15.92;80.51;96634.91;4949329;28;20093;-65
2022/08/09 03:20:25;;;;;;;8.15;6.40;;;16.90;69.20;;;15.92;80.34;96627.75;4947238;28;20041;-65
2022/08/09 03:22:50;;;;;;;7.85;5.90;;;16.90;69.10;;;15.90;81.06;96627.16;4936299;28;20570;-65
2022/08/09 03:25:16;;;;;;;5.88;4.75;;;16.90;69.20;;;15.88;81.54;96626.56;4962673;28;20040;-65
2022/08/09 03:27:42;;;;;;;5.90;4.72;;;16.90;69.20;;;15.89;80.57;96627.38;4933235;29;20035;-65
2022/08/09 03:30:10;;;;;;;5.95;4.60;;;16.90;69.20;;;15.88;80.82;96631.03;4950388;28;20059;-65
2022/08/09 03:32:36;;;;;;;7.07;3.70;;;16.80;69.40;;;15.87;81.39;96632.88;4964126;28;20042;-65
2022/08/09 03:35:02;;;;;;;6.15;3.70;;;16.80;69.30;;;15.86;81.41;96644.53;4965559;28;20126;-65
2022/08/09 03:37:27;;;;;;;5.22;3.85;;;16.80;69.30;;;15.85;80.78;96636.78;4964308;28;20054;-65
2022/08/09 03:39:53;;;;;;;5.35;3.60;;;16.90;69.40;;;15.85;81.15;96645.53;4966112;28;20447;-65
2022/08/09 03:42:19;;;;;;;4.35;3.20;;;16.90;69.50;;;15.84;81.76;96643.91;4963666;28;20067;-65
2022/08/09 03:44:45;;;;;;;4.80;3.65;;;16.80;69.40;;;15.85;81.27;96644.72;4965287;28;20027;-65
2022/08/09 03:47:10;;;;;;;6.43;3.67;;;16.80;69.40;;;15.84;81.14;96649.22;4959657;28;20582;-64
2022/08/09 03:49:36;;;;;;;5.80;3.42;;;16.90;69.70;;;15.85;81.24;96653.50;4947701;28;20047;-66
2022/08/09 03:52:02;;;;;;;6.07;3.58;;;16.90;69.60;;;15.84;82.17;96649.22;4966977;28;20035;-66
2022/08/09 03:54:36;;;;;;;6.68;3.53;;;16.80;69.60;;;15.85;82.02;96653.50;4947552;28;20046;-69
2022/08/09 03:57:06;;;;;;;5.13;3.30;;;16.80;69.70;;;15.83;81.56;96660.00;4965245;28;20061;-69
2022/08/09 03:59:32;;;;;;;8.43;4.13;;;16.80;69.70;;;15.79;82.38;96656.97;4924186;29;20060;-68
2022/08/09 04:01:58;;;;;;;5.30;4.43;;;16.80;69.60;;;15.79;82.22;96656.97;4909905;29;20036;-70
2022/08/09 04:04:25;;;;;;;4.90;4.35;;;16.80;69.80;;;15.78;82.83;96668.59;4967512;28;20130;-69
2022/08/09 04:06:51;;;;;;;7.50;5.95;;;16.80;69.90;;;15.79;82.04;96670.22;4973117;28;20038;-68
2022/08/09 04:09:17;;;;;;;9.50;7.95;;;16.80;69.80;;;15.80;82.88;96668.38;4919356;29;20023;-68
2022/08/09 04:12:07;;;;;;;6.43;4.55;;;16.90;69.90;;;15.81;83.12;96673.50;4935006;29;20031;-68
2022/08/09 04:14:33;;;;;;;5.95;4.15;;;16.90;69.80;;;15.79;82.81;96672.06;4950951;28;20039;-69
2022/08/09 04:16:59;;;;;;;5.60;3.92;;;16.80;70.00;;;15.80;82.98;96666.56;4934865;29;20078;-69
2022/08/09 04:19:24;;;;;;;4.95;3.75;;;16.80;70.10;;;15.79;82.63;96675.53;4918709;29;20511;-68
2022/08/09 04:21:50;;;;;;;5.03;4.20;;;16.80;70.00;;;15.80;82.84;96676.34;4919044;29;20047;-68
2022/08/09 04:24:16;;;;;;;5.47;3.85;;;16.80;70.00;;;15.79;82.35;96675.53;4918394;28;20032;-68
2022/08/09 04:26:42;;;;;;;5.18;3.85;;;16.80;70.10;;;15.78;83.05;96684.50;4942281;28;20086;-70
2022/08/09 04:29:07;;;;;;;7.63;3.92;;;16.90;70.20;;;15.79;83.58;96683.50;4934611;29;20028;-68
2022/08/09 04:31:33;;;;;;;4.90;3.97;;;16.90;70.30;;;15.80;82.89;96685.13;4950553;28;20407;-68
2022/08/09 04:33:59;;;;;;;5.28;4.10;;;16.80;70.20;;;15.81;83.54;96693.91;4966758;28;20035;-68
2022/08/09 04:36:29;;;;;;;4.30;3.90;;;16.90;70.30;;;15.81;83.51;96684.09;4962599;28;20058;-67
2022/08/09 04:38:57;;;;;;;6.80;4.05;;;16.90;70.20;;;15.80;83.05;96687.78;4934881;29;20024;-67
2022/08/09 04:41:23;;;;;;;4.55;3.78;;;16.90;70.20;;;15.81;83.83;96683.28;4919335;29;20027;-68
2022/08/09 04:43:52;;;;;;;5.22;3.90;;;16.90;70.20;;;15.80;83.32;96687.78;4938639;29;20050;-70
2022/08/09 04:46:18;;;;;;;4.10;3.45;;;16.90;70.20;;;15.82;83.41;96688.38;4937759;28;20034;-70
2022/08/09 04:48:44;;;;;;;5.85;4.13;;;17.00;70.00;;;15.82;84.00;96691.03;4922251;29;20024;-66
2022/08/09 04:51:10;;;;;;;4.82;3.83;;;17.00;70.10;;;15.84;83.24;96693.47;4947075;28;20032;-68
2022/08/09 04:53:36;;;;;;;6.75;4.28;;;17.00;70.10;;;15.82;83.52;96690.22;4970265;28;20066;-67
2022/08/09 04:56:01;;;;;;;5.43;3.90;;;16.90;70.50;;;15.85;84.68;96698.59;4943925;29;20110;-71
2022/08/09 04:58:27;;;;;;;5.30;4.00;;;17.00;70.50;;;15.88;84.68;96694.72;4940553;28;20078;-69
2022/08/09 05:00:54;;;;;;;6.35;4.10;;;17.00;70.50;;;15.89;85.05;96699.81;4938476;28;20034;-68
2022/08/09 05:03:19;;;;;;;6.10;5.30;;;17.10;70.80;;;15.91;85.01;96700.41;4954068;28;20043;-68
2022/08/09 05:05:47;;;;;;;6.35;4.80;;;17.10;70.50;;;15.93;84.77;96703.69;4960705;28;20143;-70
2022/08/09 05:08:12;;;;;;;9.43;7.65;;;17.10;70.40;;;15.98;84.81;96710.19;4945322;28;20028;-69
2022/08/09 05:10:38;;;;;;;7.38;5.50;;;17.10;70.40;;;16.00;84.95;96705.50;4935593;28;20039;-68
2022/08/09 05:13:04;;;;;;;5.20;4.70;;;17.20;70.40;;;16.04;85.00;96709.34;4919190;29;20031;-68
2022/08/09 05:15:30;;;;;;;6.57;4.57;;;17.20;70.40;;;16.04;84.37;96701.41;4917447;28;20181;-68
2022/08/09 05:17:55;;;;;;;4.45;3.83;;;17.30;70.30;;;16.09;84.57;96702.41;4974682;28;20059;-69
2022/08/09 05:20:21;;;;;;;4.53;4.13;;;17.30;70.40;;;16.13;84.59;96703.63;4937129;28;20043;-69
2022/08/09 05:22:49;;;;;;;7.05;4.45;;;17.40;70.50;;;16.16;85.00;96703.22;4937743;29;20090;-67
2022/08/09 05:25:15;;;;;;;5.22;4.03;;;17.50;70.40;;;16.20;85.25;96707.06;4927685;28;20404;-68
2022/08/09 05:27:41;;;;;;;6.32;4.32;;;17.50;70.20;;;16.26;84.77;96708.06;4929217;29;20077;-68
2022/08/09 05:30:08;;;;;;;6.18;4.28;;;17.60;69.70;;;16.32;85.18;96701.94;4937803;29;20592;-68
2022/08/09 05:32:33;;;;;;;5.10;3.92;;;17.70;69.50;;;16.41;84.69;96699.84;4953197;28;20035;-68
2022/08/09 05:34:59;;;;;;;7.10;4.07;;;17.80;69.30;;;16.49;84.38;96711.03;4922014;29;20059;-68
2022/08/09 05:37:25;;;;;;;8.68;4.07;;;17.90;68.90;;;16.59;84.43;96709.78;4945004;29;20102;-69
2022/08/09 05:39:51;;;;;;;4.45;4.03;;;18.10;68.60;;;16.67;83.54;96709.56;4921760;29;20039;-68
2022/08/09 05:42:17;;;;;;;8.55;3.80;;;18.10;68.00;;;16.77;83.48;96712.59;4921667;29;20752;-68
2022/08/09 05:44:42;;;;;;;4.85;3.85;;;18.30;68.00;;;16.88;82.91;96717.22;4953722;28;20119;-67
2022/08/09 05:47:08;;;;;;;5.57;3.55;;;18.40;67.50;;;16.99;83.20;96705.94;4949880;28;20027;-68
2022/08/09 05:49:34;;;;;;;4.25;3.70;;;18.50;67.10;;;17.11;82.59;96720.13;4952703;28;20403;-70
2022/08/09 05:52:00;;;;;;;4.30;3.40;;;18.70;66.80;;;17.24;82.37;96710.47;4953122;28;20043;-68
2022/08/09 05:54:25;;;;;;;4.47;3.60;;;18.90;66.30;;;17.37;81.08;96716.47;4952161;28;20064;-67
2022/08/09 05:56:51;;;;;;;6.47;3.60;;;19.10;65.20;;;17.49;80.69;96718.44;4923131;29;20106;-68
2022/08/09 05:59:18;;;;;;;3.80;3.40;;;19.10;64.30;;;17.63;80.65;96715.44;4920949;29;20047;-67
2022/08/09 06:01:44;;;;;;;4.63;3.40;;;19.40;64.20;;;17.76;80.31;96717.22;4968801;28;20032;-68
2022/08/09 06:04:10;;;;;;;6.05;3.40;;;19.50;63.60;;;17.90;79.02;96715.25;4954487;28;20087;-68
2022/08/09 06:06:35;;;;;;;5.40;3.55;;;19.70;62.90;;;18.05;78.80;96718.34;4956679;28;20035;-68
2022/08/09 06:09:01;;;;;;;6.68;4.10;;;19.90;62.30;;;18.19;78.12;96719.84;4952622;28;20558;-68
2022/08/09 06:11:27;;;;;;;6.15;3.72;;;20.10;61.90;;;18.33;77.16;96721.34;4951767;28;20035;-68
2022/08/09 06:13:53;;;;;;;5.85;3.83;;;20.20;61.50;;;18.49;77.06;96719.09;4952732;28;20407;-68
2022/08/09 06:16:20;;;;;;;5.43;3.63;;;20.40;60.80;;;18.65;76.55;96718.53;4920438;28;20039;-66
2022/08/09 06:18:46;;;;;;;7.40;3.83;;;20.60;60.50;;;18.82;76.32;96722.19;4953863;28;20106;-69
2022/08/09 06:21:12;;;;;;;4.30;3.38;;;20.70;60.10;;;18.98;76.00;96723.41;4956562;28;20027;-67
2022/08/09 06:23:38;;;;;;;4.72;3.50;;;20.90;59.80;;;19.16;74.29;96725.19;4936456;29;20043;-69
2022/08/09 06:26:04;;;;;;;3.42;2.95;;;21.00;59.20;;;19.32;74.66;96723.75;4937352;28;20431;-70
2022/08/09 06:28:29;;;;;;;5.30;3.20;;;21.10;59.10;;;19.46;72.92;96726.00;4935806;28;20611;-70
2022/08/09 06:30:55;;;;;;;7.28;3.33;;;21.20;58.30;;;19.60;72.59;96721.28;4952707;28;20046;-69
2022/08/09 06:33:21;;;;;;;4.20;3.60;;;21.30;58.40;;;19.72;72.02;96723.97;4953576;28;20078;-69
2022/08/09 06:35:47;;;;;;;3.88;2.88;;;21.40;57.70;;;19.80;70.67;96731.63;4938988;29;20114;-68
2022/08/09 06:38:12;;;;;;;4.60;3.17;;;21.50;57.80;;;19.90;70.66;96726.50;4935757;28;20035;-68
2022/08/09 06:40:38;;;;;;;5.03;3.05;;;21.60;57.00;;;20.00;69.71;96728.59;4933110;28;20100;-68
2022/08/09 06:43:04;;;;;;;7.20;3.05;;;21.60;56.60;;;20.07;69.28;96724.75;4933239;28;20039;-68
2022/08/09 06:45:30;;;;;;;5.32;3.20;;;21.80;56.20;;;20.16;69.43;96726.03;4967491;28;20066;-68
2022/08/09 06:47:55;;;;;;;8.25;3.30;;;21.80;55.70;;;20.23;68.97;96730.44;4936045;29;20066;-69
2022/08/09 06:50:21;;;;;;;8.07;2.97;;;22.00;56.10;;;20.32;68.65;96729.84;4935730;28;20047;-68
2022/08/09 06:52:47;;;;;;;6.57;2.85;;;22.10;55.40;;;20.41;67.79;96725.00;4920301;28;20676;-69
2022/08/09 06:55:19;;;;;;;5.28;3.10;;;22.10;55.00;;;20.52;66.55;96724.13;4939052;28;20359;-70
2022/08/09 06:57:44;;;;;;;7.15;3.33;;;22.30;54.20;;;20.57;66.16;96724.22;4920484;29;20031;-69
2022/08/09 07:00:11;;;;;;;5.90;2.85;;;22.20;53.40;;;20.65;65.71;96728.41;4952122;29;20032;-69
2022/08/09 07:02:37;;;;;;;6.40;2.55;;;22.40;53.40;;;20.73;65.97;96720.81;4941869;28;20047;-68
2022/08/09 07:05:03;;;;;;;5.72;3.22;;;22.50;53.40;;;20.82;65.72;96717.75;4919870;29;20027;-69
2022/08/09 07:07:29;;;;;;;5.07;2.85;;;22.70;53.70;;;20.92;65.35;96724.13;4951749;29;20035;-69
2022/08/09 07:09:55;;;;;;;6.00;2.63;;;22.80;53.10;;;21.01;65.13;96727.22;4920103;29;20454;-68
2022/08/09 07:12:21;;;;;;;3.28;2.22;;;22.90;52.30;;;21.14;63.95;96726.13;4957311;28;20031;-69
2022/08/09 07:14:46;;;;;;;3.78;2.50;;;23.10;51.00;;;21.24;63.16;96735.16;4916852;29;20523;-69
2022/08/09 07:17:13;;;;;;;4.93;2.78;;;23.10;50.20;;;21.34;63.17;96724.66;4932379;28;20059;-68
2022/08/09 07:19:39;;;;;;;5.32;2.20;;;23.30;50.40;;;21.47;63.27;96733.41;4932478;28;20067;-69
2022/08/09 07:22:05;;;;;;;3.78;2.35;;;23.50;50.90;;;21.62;61.61;96733.66;4929459;28;20043;-69
2022/08/09 07:24:30;;;;;;;4.57;2.13;;;23.60;49.00;;;21.77;60.50;96735.78;4958478;28;20102;-69
2022/08/09 07:26:57;;;;;;;3.30;2.20;;;23.80;47.90;;;21.92;59.83;96736.00;4950775;29;20562;-69
2022/08/09 07:29:23;;;;;;;4.32;2.03;;;24.10;47.40;;;22.08;59.47;96742.44;4919581;29;20050;-69
2022/08/09 07:31:49;;;;;;;5.50;1.77;;;24.20;47.60;;;22.24;59.74;96746.97;4922760;28;20490;-69
2022/08/09 07:34:15;;;;;;;3.42;1.70;;;24.50;47.80;;;22.42;58.84;96732.47;4953845;28;20105;-69
2022/08/09 07:36:40;;;;;;;4.30;2.10;;;24.70;46.10;;;22.61;58.48;96747.97;4919020;28;20097;-69
2022/08/09 07:39:06;;;;;;;4.00;2.08;;;25.00;47.10;;;22.80;58.29;96731.56;4951035;28;20027;-69
2022/08/09 07:41:32;;;;;;;4.10;2.50;;;25.20;45.50;;;22.98;58.53;96739.34;4936062;28;20493;-69
2022/08/09 07:43:58;;;;;;;3.83;2.20;;;25.50;46.30;;;23.18;58.23;96738.75;4961301;28;20466;-69
2022/08/09 07:46:24;;;;;;;7.00;4.32;;;25.60;46.10;;;23.38;57.62;96741.63;4952264;28;20458;-69
2022/08/09 07:48:50;;;;;;;6.38;2.85;;;25.90;45.90;;;23.59;58.76;96742.66;4929520;29;20504;-68
2022/08/09 07:51:15;;;;;;;5.07;2.78;;;26.10;46.30;;;23.75;57.68;96747.06;4916309;29;20114;-69
2022/08/09 07:53:41;;;;;;;6.30;2.15;;;26.40;45.00;;;23.94;56.60;96754.72;4916024;29;20039;-69
2022/08/09 07:56:07;;;;;;;4.53;1.80;;;26.60;43.80;;;24.12;55.86;96749.75;4917471;28;20062;-69
2022/08/09 07:58:33;;;;;;;3.95;2.10;;;26.70;43.10;;;24.30;55.31;96758.50;4950930;28;20079;-69
2022/08/09 08:00:58;;;;;;;4.28;1.70;;;27.00;43.80;;;24.49;54.79;96761.56;4920724;29;20046;-70
2022/08/09 08:03:24;;;;;;;6.72;1.85;;;27.10;41.90;;;24.65;53.54;96750.59;4900349;29;20512;-69
2022/08/09 08:05:50;;;;;;;4.03;1.60;;;27.30;41.10;;;24.79;53.21;96750.94;4916261;29;20761;-69
2022/08/09 08:08:16;;;;;;;3.90;1.60;;;27.50;40.90;;;24.95;52.79;96755.31;4957679;28;20388;-69
2022/08/09 08:10:42;;;;;;;2.85;1.50;;;27.60;41.40;;;25.11;51.79;96763.44;4934467;28;20567;-70
2022/08/09 08:13:07;;;;;;;2.65;1.50;;;27.80;39.90;;;25.28;51.07;96753.25;4951162;28;20034;-70
2022/08/09 08:15:33;;;;;;;4.15;1.45;;;28.00;39.10;;;25.46;51.36;96750.06;4950611;28;20032;-70
2022/08/09 08:17:59;;;;;;;2.80;1.50;;;28.30;40.70;;;25.60;51.23;96756.56;4910375;29;20566;-70
2022/08/09 08:20:27;;;;;;;2.25;1.35;;;28.50;40.20;;;25.77;50.76;96755.50;4915465;29;20074;-67
2022/08/09 08:22:52;;;;;;;3.28;1.25;;;28.70;39.40;;;25.95;50.09;96753.06;4932195;28;20035;-68
2022/08/09 08:25:18;;;;;;;4.30;1.48;;;29.00;38.50;;;26.11;48.60;96756.56;4916070;29;20035;-69
2022/08/09 08:27:44;;;;;;;3.63;1.30;;;29.20;36.20;;;26.24;48.05;96753.28;4944236;28;20034;-69
2022/08/09 08:30:12;;;;;;;4.70;1.60;;;29.40;36.90;;;26.42;47.47;96756.53;4931504;29;20419;-68
2022/08/09 08:32:39;;;;;;;3.88;1.48;;;29.60;35.50;;;26.58;47.00;96752.72;4934307;28;20023;-68
2022/08/09 08:35:05;;;;;;;3.85;1.30;;;29.80;36.00;;;26.72;46.40;96745.66;4934810;29;20032;-68
2022/08/09 08:37:32;;;;;;;3.83;1.33;;;30.10;35.30;;;26.86;46.34;96746.66;4954243;28;20055;-68
2022/08/09 08:39:58;;;;;;;3.67;1.35;;;30.30;34.80;;;27.05;45.96;96752.28;4934577;29;20031;-68
2022/08/09 08:42:24;;;;;;;6.85;1.50;;;30.50;34.90;;;27.20;45.27;96754.09;4934245;28;20086;-68
2022/08/09 08:44:52;;;;;;;2.13;1.60;;;30.50;34.40;;;27.37;44.94;96757.22;4934443;29;20050;-68
2022/08/09 08:47:18;;;;;;;1.67;1.17;;;30.80;34.70;;;27.56;45.41;96753.84;4931939;29;20031;-71
2022/08/09 08:49:44;;;;;;;2.78;1.60;;;31.10;34.20;;;27.68;44.32;96746.22;4937634;28;20122;-68
2022/08/09 08:52:09;;;;;;;2.80;1.30;;;31.10;33.50;;;27.85;43.29;96746.66;4899849;29;20586;-69
2022/08/09 08:54:35;;;;;;;3.78;1.33;;;31.30;33.00;;;27.99;42.95;96744.88;4915102;28;20535;-68
2022/08/09 08:57:02;;;;;;;3.40;1.45;;;31.40;32.30;;;28.14;42.52;96748.53;4911134;28;20050;-68
2022/08/09 08:59:28;;;;;;;3.28;1.20;;;31.50;32.80;;;28.28;43.07;96747.59;4970054;28;20418;-68
2022/08/09 09:01:54;;;;;;;2.42;1.25;;;31.70;33.50;;;28.43;42.38;96746.63;4945518;28;20028;-67
2022/08/09 09:04:20;;;;;;;6.18;1.20;;;32.00;33.00;;;28.61;42.21;96745.09;4899853;29;20058;-68
2022/08/09 09:06:47;;;;;;;7.30;2.85;;;32.20;32.60;;;28.83;41.42;96739.16;4903883;28;20146;-68
2022/08/09 09:09:15;;;;;;;5.25;1.73;;;32.50;32.10;;;29.00;40.69;96744.91;4957935;28;20491;-68
2022/08/09 09:11:41;;;;;;;5.53;1.70;;;32.60;30.60;;;29.17;41.03;96742.50;4934686;28;20094;-68
2022/08/09 09:14:16;;;;;;;3.78;2.53;;;32.80;31.30;;;29.38;38.53;96739.50;4953656;28;20530;-68
2022/08/09 09:16:42;;;;;;;3.78;1.30;;;32.90;30.80;;;29.56;39.59;96725.97;4930672;28;20123;-68
2022/08/09 09:19:09;;;;;;;2.70;1.10;;;33.10;30.40;;;29.76;39.13;96735.69;4915079;29;20428;-68
2022/08/09 09:21:35;;;;;;;7.90;1.50;;;33.30;29.80;;;29.89;38.85;96726.00;4930817;28;20036;-68
2022/08/09 09:24:05;;;;;;;2.13;1.20;;;33.30;29.70;;;30.09;36.94;96727.56;4941984;29;20531;-69
2022/08/09 09:26:33;;;;;;;3.97;1.27;;;33.60;29.50;;;30.30;37.47;96726.09;4931293;28;20035;-70
2022/08/09 09:29:00;;;;;;;7.47;1.27;;;33.60;29.10;;;30.48;36.66;96725.19;4937136;29;20050;-70
2022/08/09 09:31:26;;;;;;;3.28;1.00;;;33.80;28.30;;;30.64;36.71;96722.22;4922079;29;20054;-70
2022/08/09 09:33:52;;;;;;;7.63;1.35;;;34.10;27.50;;;30.85;35.65;96723.41;4921699;29;20035;-70
2022/08/09 09:36:18;;;;;;;1.95;1.10;;;34.30;27.20;;;31.06;35.65;96719.16;4943427;28;20035;-70
2022/08/09 09:38:48;;;;;;;4.70;1.38;;;34.40;27.30;;;31.27;33.89;96713.28;4936634;28;20447;-69
2022/08/09 09:41:25;;;;;;;4.63;0.90;;;34.60;26.90;;;31.46;34.29;96721.28;4954965;28;20027;-69
2022/08/09 09:43:55;;;;;;;6.65;1.20;;;35.00;27.30;;;31.69;32.91;96718.28;4954623;28;20043;-68
2022/08/09 09:46:28;;;;;;;2.47;1.00;;;35.00;26.20;;;31.90;31.69;96724.03;4920493;28;20111;-67
2022/08/09 09:49:03;;;;;;;2.40;0.80;;;35.20;26.00;;;32.10;33.14;96721.91;4953195;28;20023;-69
2022/08/09 09:51:29;;;;;;;2.88;1.20;;;35.40;26.60;;;32.19;33.58;96718.13;4938565;28;20031;-69
2022/08/09 09:54:13;;;;;;;2.78;1.20;;;35.50;25.90;;;32.33;31.25;96725.41;4937426;28;20042;-69
2022/08/09 09:56:42;;;;;;;6.13;2.50;;;35.90;25.40;;;32.52;32.38;96721.31;4925319;28;20558;-68
2022/08/09 09:59:09;;;;;;;3.40;1.20;;;36.20;25.40;;;32.68;32.70;96718.97;4937000;29;20091;-69
2022/08/09 10:01:35;;;;;;;2.67;1.10;;;36.60;25.20;;;32.83;32.55;96725.97;4954242;28;20093;-70
2022/08/09 10:04:01;;;;;;;2.15;1.00;;;37.00;24.70;;;32.99;31.33;96723.56;4937292;29;20039;-70
2022/08/09 10:06:39;;;;;;;2.63;0.98;;;37.20;23.00;;;33.21;29.83;96715.25;4955909;28;20097;-70
2022/08/09 10:09:07;;;;;;;1.48;0.90;;;37.70;23.10;;;33.44;31.56;96714.00;4949090;28;20031;-71
2022/08/09 10:11:33;;;;;;;4.18;1.20;;;38.00;22.10;;;33.71;31.45;96723.78;4902805;29;20028;-70
2022/08/09 10:13:59;;;;;;;1.95;1.10;;;38.50;22.40;;;34.03;30.75;96713.50;4933783;28;20044;-68
2022/08/09 10:16:34;;;;;;;6.18;1.10;;;38.80;22.50;;;34.33;28.56;96728.03;4954587;28;20534;-68
2022/08/09 10:19:03;;;;;;;5.63;1.35;;;39.20;21.30;;;34.49;29.45;96726.38;4952392;28;20119;-69
2022/08/09 10:21:28;;;;;;;3.60;1.00;;;39.50;21.00;;;34.58;29.57;96715.41;4952301;28;20051;-69